Time;durP1;ratioP1;P1;durP2;ratioP2;P2;SDS_P1;SDS_P2;PMS_P1;PMS_P2;Temp;Humidity;BMP_temperature;BMP_pressure;BME280_temperature;BME280_humidity;BME280_pressure;Samples;Min_cycle;Max_cycle;Signal;HPM_P1;HPM_P2
2022/09/18 00:02:22;;;;;;;10.13;1.80;;;12.50;99.90;;;;;;5042518;28;20310;-61
2022/09/18 00:04:48;;;;;;;9.40;1.92;;;12.50;99.90;;;;;;5039218;28;20029;-61
2022/09/18 00:07:14;;;;;;;8.88;2.00;;;12.60;99.90;;;;;;5042988;28;20106;-61
2022/09/18 00:09:40;;;;;;;7.00;2.10;;;12.50;99.90;;;;;;5043806;28;20470;-61
2022/09/18 00:12:06;;;;;;;9.73;1.80;;;12.40;99.90;;;;;;5040316;28;20053;-62
2022/09/18 00:14:31;;;;;;;10.05;1.88;;;12.50;99.90;;;;;;5042531;28;20528;-61
2022/09/18 00:16:57;;;;;;;11.00;2.33;;;12.50;99.90;;;;;;5043361;28;20148;-61
2022/09/18 00:19:22;;;;;;;6.55;2.47;;;12.50;99.90;;;;;;5043372;28;20170;-61
2022/09/18 00:21:50;;;;;;;10.27;1.95;;;12.40;99.90;;;;;;5042841;28;20115;-62
2022/09/18 00:24:16;;;;;;;11.90;2.53;;;12.60;99.90;;;;;;5039762;28;20580;-62
2022/09/18 00:26:43;;;;;;;8.23;1.70;;;12.90;99.90;;;;;;5046284;28;20191;-61
2022/09/18 00:29:11;;;;;;;13.77;2.13;;;12.50;99.90;;;;;;5037585;28;20029;-61
2022/09/18 00:31:37;;;;;;;11.00;2.33;;;12.50;99.90;;;;;;5039475;28;20590;-62
2022/09/18 00:34:06;;;;;;;10.82;2.13;;;12.30;99.90;;;;;;5043308;28;20417;-61
2022/09/18 00:36:32;;;;;;;11.95;2.28;;;12.50;99.90;;;;;;5042560;28;20084;-61
2022/09/18 00:38:58;;;;;;;12.32;2.10;;;12.50;99.90;;;;;;5043224;28;20428;-61
2022/09/18 00:41:27;;;;;;;8.52;2.03;;;12.60;99.90;;;;;;5042478;28;20041;-61
2022/09/18 00:44:27;;;;;;;7.15;1.60;;;12.50;99.90;;;;;;5042840;28;20560;-61
2022/09/18 00:46:52;;;;;;;9.10;2.35;;;12.60;99.90;;;;;;5030325;28;20071;-61
2022/09/18 00:49:22;;;;;;;6.97;1.85;;;12.50;99.90;;;;;;5040752;28;20040;-61
2022/09/18 00:51:52;;;;;;;11.27;2.88;;;12.50;99.90;;;;;;5040911;28;20113;-61
2022/09/18 00:54:34;;;;;;;10.65;2.30;;;12.50;99.90;;;;;;5042029;28;20037;-61
2022/09/18 00:57:09;;;;;;;9.23;2.00;;;12.80;99.90;;;;;;5041682;28;20105;-61
2022/09/18 00:59:36;;;;;;;10.05;2.00;;;12.70;99.90;;;;;;5038797;28;20029;-61
2022/09/18 01:02:03;;;;;;;8.38;2.03;;;12.60;99.90;;;;;;5041634;28;20337;-61
2022/09/18 01:04:29;;;;;;;10.52;2.20;;;12.50;99.90;;;;;;5042614;28;20029;-61
2022/09/18 01:07:06;;;;;;;5.85;1.90;;;12.50;99.90;;;;;;5039973;28;20452;-61
2022/09/18 01:09:57;;;;;;;11.27;2.03;;;12.50;99.90;;;;;;5043897;28;20060;-61
2022/09/18 01:12:46;;;;;;;12.85;2.22;;;12.50;99.90;;;;;;5039139;28;20342;-61
2022/09/18 01:15:27;;;;;;;9.82;1.90;;;12.50;99.90;;;;;;5040760;28;20720;-61
2022/09/18 01:18:13;;;;;;;9.57;2.05;;;12.50;99.90;;;;;;5041050;28;20120;-62
2022/09/18 01:21:08;;;;;;;7.93;1.80;;;12.60;99.90;;;;;;5041840;28;20120;-62
2022/09/18 01:24:00;;;;;;;10.88;2.10;;;12.40;99.90;;;;;;5040487;28;20544;-61
2022/09/18 01:27:11;;;;;;;6.13;1.77;;;12.50;99.90;;;;;;5039847;28;20083;-61
2022/09/18 01:30:06;;;;;;;8.38;1.88;;;12.50;99.90;;;;;;5037877;28;20037;-61
2022/09/18 01:32:59;;;;;;;6.25;1.33;;;12.50;99.90;;;;;;5042030;28;20688;-62
2022/09/18 01:35:43;;;;;;;9.27;1.67;;;12.60;99.90;;;;;;5037359;28;20036;-61
2022/09/18 01:38:13;;;;;;;8.60;1.73;;;12.40;99.90;;;;;;5041688;28;20021;-61
2022/09/18 01:40:45;;;;;;;7.10;1.80;;;12.50;99.90;;;;;;5038545;28;20052;-62
2022/09/18 01:43:14;;;;;;;5.25;1.38;;;12.50;99.90;;;;;;5041162;28;20036;-61
2022/09/18 01:45:44;;;;;;;7.65;1.50;;;12.40;99.90;;;;;;5036503;28;20028;-61
2022/09/18 01:48:15;;;;;;;7.47;1.63;;;12.40;99.90;;;;;;5040864;28;20029;-62
2022/09/18 01:50:48;;;;;;;7.80;1.75;;;12.30;99.90;;;;;;5039878;28;20468;-61
2022/09/18 01:53:32;;;;;;;7.65;1.67;;;12.60;99.90;;;;;;5030638;28;20116;-61
2022/09/18 01:56:06;;;;;;;7.65;1.60;;;12.50;99.90;;;;;;5043736;28;20134;-62
2022/09/18 01:58:33;;;;;;;4.43;1.30;;;12.40;99.90;;;;;;5041713;28;20481;-61
2022/09/18 02:01:04;;;;;;;8.25;2.00;;;12.40;99.90;;;;;;5041792;28;20057;-62
2022/09/18 02:03:38;;;;;;;10.63;2.17;;;12.50;99.90;;;;;;5043151;28;20033;-61
2022/09/18 02:06:18;;;;;;;9.48;1.90;;;12.40;99.90;;;;;;5040917;28;20029;-61
2022/09/18 02:08:48;;;;;;;9.02;2.30;;;12.50;99.90;;;;;;5041606;28;20032;-61
2022/09/18 02:11:15;;;;;;;9.38;2.10;;;12.30;99.90;;;;;;5038534;28;20032;-62
2022/09/18 02:13:47;;;;;;;10.55;2.63;;;12.30;99.90;;;;;;5041334;28;20040;-62
2022/09/18 02:16:45;;;;;;;8.10;2.47;;;12.50;99.90;;;;;;5041878;28;20051;-62
2022/09/18 02:19:30;;;;;;;9.95;2.88;;;12.50;99.90;;;;;;5042159;28;20040;-61
2022/09/18 02:21:58;;;;;;;7.93;3.00;;;12.20;99.90;;;;;;5041627;28;20043;-62
2022/09/18 02:24:28;;;;;;;10.13;2.95;;;12.40;99.90;;;;;;5040228;28;20037;-62
2022/09/18 02:26:55;;;;;;;11.50;3.10;;;12.40;99.90;;;;;;5040108;28;20036;-61
2022/09/18 02:29:23;;;;;;;9.77;3.40;;;12.40;99.90;;;;;;5042392;28;20037;-61
2022/09/18 02:31:49;;;;;;;8.98;3.20;;;12.40;99.90;;;;;;5037031;28;20040;-61
2022/09/18 02:34:17;;;;;;;9.23;3.88;;;12.40;99.90;;;;;;5016880;28;20326;-62
2022/09/18 02:36:57;;;;;;;9.93;3.58;;;12.40;99.90;;;;;;5039548;28;20041;-61
2022/09/18 02:39:38;;;;;;;12.45;3.75;;;12.30;99.90;;;;;;5039026;28;20036;-62
2022/09/18 02:42:29;;;;;;;11.38;3.95;;;12.20;99.90;;;;;;5037664;28;20380;-61
2022/09/18 02:45:33;;;;;;;11.20;3.65;;;12.10;99.90;;;;;;5027173;28;20571;-62
2022/09/18 02:48:24;;;;;;;12.15;3.60;;;12.10;99.90;;;;;;5003636;28;20520;-61
2022/09/18 02:51:09;;;;;;;7.47;3.60;;;12.10;99.90;;;;;;5039310;28;20685;-61
2022/09/18 02:53:53;;;;;;;12.05;3.63;;;12.20;99.90;;;;;;5039948;28;20047;-61
2022/09/18 02:56:37;;;;;;;7.78;3.88;;;12.30;99.90;;;;;;5038803;28;20044;-61
2022/09/18 02:59:20;;;;;;;7.50;3.50;;;12.40;99.90;;;;;;5037908;28;20433;-61
2022/09/18 03:01:47;;;;;;;;;;;12.40;99.90;;;;;;5040189;28;20044;-61
2022/09/18 03:04:18;;;;;;;7.72;3.72;;;12.40;99.90;;;;;;5038645;28;20311;-62
2022/09/18 03:06:43;;;;;;;7.00;3.15;;;12.40;99.90;;;;;;5039618;28;20336;-61
2022/09/18 03:09:09;;;;;;;9.82;3.15;;;12.50;99.90;;;;;;5040034;28;20029;-61
2022/09/18 03:11:35;;;;;;;9.20;3.55;;;12.50;99.90;;;;;;5039903;28;20053;-61
2022/09/18 03:14:01;;;;;;;7.90;3.33;;;12.40;99.90;;;;;;5039501;28;20655;-62
2022/09/18 03:16:27;;;;;;;8.68;3.38;;;12.30;99.90;;;;;;5040350;28;20060;-61
2022/09/18 03:18:53;;;;;;;11.15;3.45;;;12.50;99.90;;;;;;5044641;28;20029;-62
2022/09/18 03:21:19;;;;;;;7.60;3.10;;;12.50;99.90;;;;;;5044373;28;20064;-62
2022/09/18 03:23:45;;;;;;;11.63;3.08;;;12.60;99.90;;;;;;5049088;28;20054;-62
2022/09/18 03:26:10;;;;;;;7.63;3.08;;;12.50;99.90;;;;;;5043511;28;20029;-62
2022/09/18 03:28:36;;;;;;;13.25;3.63;;;12.40;99.90;;;;;;5045953;28;20122;-62
2022/09/18 03:31:02;;;;;;;10.95;3.17;;;12.30;99.90;;;;;;5042919;28;20041;-62
2022/09/18 03:33:28;;;;;;;10.82;2.70;;;12.30;99.90;;;;;;5046264;28;20621;-61
2022/09/18 03:35:53;;;;;;;9.68;3.00;;;12.20;99.90;;;;;;5045619;28;20083;-62
2022/09/18 03:38:19;;;;;;;10.10;2.60;;;12.10;99.90;;;;;;5044726;28;20029;-61
2022/09/18 03:40:45;;;;;;;9.73;2.55;;;12.20;99.90;;;;;;5044519;28;20029;-62
2022/09/18 03:43:11;;;;;;;7.55;2.95;;;12.30;99.90;;;;;;5041664;28;20032;-62
2022/09/18 03:45:37;;;;;;;8.25;2.70;;;12.40;99.90;;;;;;5039262;28;20150;-62
2022/09/18 03:48:03;;;;;;;9.20;3.10;;;12.40;99.90;;;;;;5040569;28;20186;-61
2022/09/18 03:50:29;;;;;;;8.40;2.60;;;12.40;99.90;;;;;;5043465;28;20040;-61
2022/09/18 03:52:54;;;;;;;9.82;3.10;;;12.30;99.90;;;;;;5043921;28;20029;-62
2022/09/18 03:55:21;;;;;;;8.35;2.65;;;12.40;99.90;;;;;;5043882;28;20021;-61
2022/09/18 03:57:47;;;;;;;9.82;2.80;;;12.30;99.90;;;;;;5043751;28;20032;-61
2022/09/18 04:00:13;;;;;;;9.43;2.40;;;12.20;99.90;;;;;;5042806;28;20025;-62
2022/09/18 04:02:39;;;;;;;10.13;2.38;;;12.50;99.90;;;;;;5041949;28;20427;-61
2022/09/18 04:05:05;;;;;;;9.73;2.72;;;12.00;99.90;;;;;;5043884;28;20024;-62
2022/09/18 04:07:31;;;;;;;6.55;2.60;;;12.10;99.90;;;;;;5047322;28;20094;-61
2022/09/18 04:09:57;;;;;;;7.80;2.55;;;12.20;99.90;;;;;;5048332;28;20045;-62
2022/09/18 04:12:23;;;;;;;11.73;3.00;;;12.30;99.90;;;;;;5047138;28;20188;-61
2022/09/18 04:14:48;;;;;;;8.93;2.85;;;12.40;99.90;;;;;;5044601;28;20079;-61
2022/09/18 04:17:14;;;;;;;7.13;2.60;;;12.30;99.90;;;;;;5042000;28;20043;-61
2022/09/18 04:19:40;;;;;;;8.57;2.95;;;12.30;99.90;;;;;;5044338;28;20072;-61
2022/09/18 04:22:06;;;;;;;10.02;2.95;;;12.30;99.90;;;;;;5049654;28;20641;-62
2022/09/18 04:24:31;;;;;;;9.00;3.38;;;12.30;99.90;;;;;;5042282;28;20155;-62
2022/09/18 04:26:57;;;;;;;11.98;3.53;;;12.20;99.90;;;;;;5044362;28;20055;-61
2022/09/18 04:29:22;;;;;;;8.38;2.63;;;12.10;99.90;;;;;;5038772;28;20052;-62
2022/09/18 04:31:48;;;;;;;8.35;3.03;;;12.10;99.90;;;;;;5043620;28;20096;-61
2022/09/18 04:34:14;;;;;;;9.60;2.83;;;12.30;99.90;;;;;;5043378;28;20034;-62
2022/09/18 04:36:40;;;;;;;7.25;3.22;;;12.50;99.90;;;;;;5039880;28;20077;-62
2022/09/18 04:39:05;;;;;;;12.25;4.35;;;12.50;99.90;;;;;;5043318;28;20101;-61
2022/09/18 04:41:31;;;;;;;9.60;3.92;;;12.50;99.90;;;;;;5042523;28;20033;-62
2022/09/18 04:43:56;;;;;;;14.32;5.20;;;12.60;99.90;;;;;;5042228;28;20033;-61
2022/09/18 04:46:22;;;;;;;13.70;4.70;;;12.60;99.90;;;;;;5034101;28;20405;-61
2022/09/18 04:48:48;;;;;;;9.50;4.80;;;12.60;99.90;;;;;;5043536;28;20113;-61
2022/09/18 04:51:14;;;;;;;10.38;4.70;;;12.70;99.90;;;;;;5042635;28;20502;-61
2022/09/18 04:53:40;;;;;;;8.88;4.72;;;12.60;99.90;;;;;;5042733;28;20157;-61
2022/09/18 04:56:05;;;;;;;12.68;4.53;;;12.70;99.90;;;;;;5041836;28;20033;-62
2022/09/18 04:58:31;;;;;;;12.65;5.10;;;12.70;99.90;;;;;;5039601;28;20041;-61
2022/09/18 05:00:57;;;;;;;9.95;5.05;;;12.70;99.90;;;;;;5039877;28;20033;-61
2022/09/18 05:03:22;;;;;;;15.85;5.47;;;12.70;99.90;;;;;;5042862;28;20443;-62
2022/09/18 05:05:50;;;;;;;12.25;5.20;;;12.60;99.90;;;;;;5041767;28;20495;-61
2022/09/18 05:08:16;;;;;;;8.27;5.15;;;12.60;99.90;;;;;;5041672;28;20037;-61
2022/09/18 05:10:42;;;;;;;9.43;4.82;;;12.60;99.90;;;;;;5039967;28;20033;-61
2022/09/18 05:13:08;;;;;;;15.05;5.75;;;12.60;99.90;;;;;;5040709;28;20040;-61
2022/09/18 05:15:34;;;;;;;9.55;4.82;;;12.60;99.90;;;;;;5041417;28;20499;-61
2022/09/18 05:18:05;;;;;;;12.90;4.88;;;12.60;99.90;;;;;;5043622;28;20032;-61
2022/09/18 05:20:32;;;;;;;11.27;5.07;;;12.60;99.90;;;;;;5041973;28;20029;-61
2022/09/18 05:22:57;;;;;;;12.25;5.00;;;12.50;99.90;;;;;;5043785;28;20476;-61
2022/09/18 05:25:27;;;;;;;11.93;5.07;;;12.40;99.90;;;;;;5043245;28;20032;-63
2022/09/18 05:27:58;;;;;;;14.45;5.30;;;12.40;99.90;;;;;;5041047;28;20052;-63
2022/09/18 05:30:25;;;;;;;13.57;4.53;;;12.30;99.90;;;;;;5039345;28;20159;-63
2022/09/18 05:32:55;;;;;;;14.10;4.50;;;12.20;99.90;;;;;;5043573;28;20030;-63
2022/09/18 05:35:22;;;;;;;9.13;4.45;;;12.20;99.90;;;;;;5043546;28;20534;-62
2022/09/18 05:37:52;;;;;;;12.82;4.25;;;12.40;99.90;;;;;;5041571;28;20051;-62
2022/09/18 05:40:19;;;;;;;10.90;3.58;;;12.30;99.90;;;;;;5040688;28;20405;-62
2022/09/18 05:42:48;;;;;;;12.00;3.83;;;12.40;99.90;;;;;;5039458;28;20543;-62
2022/09/18 05:45:15;;;;;;;13.25;3.80;;;12.50;99.90;;;;;;5037498;28;20040;-62
2022/09/18 05:47:41;;;;;;;9.88;3.55;;;12.40;99.90;;;;;;5040031;28;20106;-61
2022/09/18 05:50:08;;;;;;;9.98;3.10;;;12.50;99.90;;;;;;5040169;28;20048;-62
2022/09/18 05:52:34;;;;;;;6.05;2.55;;;12.30;99.90;;;;;;5042087;28;20512;-61
2022/09/18 05:55:01;;;;;;;10.93;3.20;;;12.40;99.90;;;;;;5044758;28;20045;-62
2022/09/18 05:57:26;;;;;;;12.48;2.72;;;12.40;99.90;;;;;;5041548;28;20080;-61
2022/09/18 05:59:52;;;;;;;12.93;3.25;;;12.40;99.90;;;;;;5042445;28;20469;-61
2022/09/18 06:02:17;;;;;;;10.20;3.67;;;12.40;99.90;;;;;;5042563;28;20296;-61
2022/09/18 06:04:43;;;;;;;9.32;3.70;;;12.40;99.90;;;;;;5042268;28;20041;-61
2022/09/18 06:07:08;;;;;;;8.82;3.60;;;12.50;99.90;;;;;;5043179;28;20094;-61
2022/09/18 06:09:34;;;;;;;8.75;3.75;;;12.50;99.90;;;;;;5043171;28;20029;-61
2022/09/18 06:12:00;;;;;;;9.27;3.80;;;12.60;99.90;;;;;;5043695;28;20039;-62
2022/09/18 06:14:26;;;;;;;16.17;4.15;;;12.50;99.90;;;;;;5039557;28;21344;-61
2022/09/18 06:16:52;;;;;;;8.90;3.45;;;12.60;99.90;;;;;;5042483;28;20693;-62
2022/09/18 06:19:18;;;;;;;15.75;4.03;;;12.50;99.90;;;;;;5044191;28;20452;-61
2022/09/18 06:21:44;;;;;;;11.50;3.50;;;12.50;99.90;;;;;;5042266;28;20048;-62
2022/09/18 06:24:10;;;;;;;9.30;3.08;;;12.70;99.90;;;;;;5038014;28;21257;-62
2022/09/18 06:26:36;;;;;;;7.22;2.80;;;12.80;99.90;;;;;;5043938;28;20456;-61
2022/09/18 06:29:01;;;;;;;10.07;3.00;;;12.40;99.90;;;;;;5041878;28;20046;-57
2022/09/18 06:31:27;;;;;;;14.27;3.03;;;12.30;99.90;;;;;;5040770;28;20033;-57
2022/09/18 06:33:52;;;;;;;10.63;2.38;;;12.50;99.90;;;;;;5041877;28;20071;-59
2022/09/18 06:36:18;;;;;;;8.05;2.83;;;14.50;99.90;;;;;;5039467;28;20033;-60
2022/09/18 06:38:44;;;;;;;9.13;2.40;;;12.40;99.90;;;;;;5039956;28;20138;-60
2022/09/18 06:41:10;;;;;;;14.55;3.25;;;;;;;;;;5035347;28;20353;-59
2022/09/18 06:43:35;;;;;;;6.03;2.03;;;12.80;99.90;;;;;;5037541;28;20085;-58
2022/09/18 06:46:02;;;;;;;7.80;2.15;;;12.60;99.90;;;;;;5034864;28;20512;-58
2022/09/18 06:48:28;;;;;;;8.52;1.95;;;12.70;99.90;;;;;;5038578;28;20039;-59
2022/09/18 06:50:58;;;;;;;6.47;1.50;;;12.70;99.90;;;;;;5040376;28;20045;-57
2022/09/18 06:53:27;;;;;;;3.20;1.25;;;12.40;99.90;;;;;;5039362;28;20049;-58
2022/09/18 06:55:58;;;;;;;4.53;0.93;;;12.30;99.90;;;;;;5044631;28;20029;-59
2022/09/18 06:58:24;;;;;;;2.50;1.27;;;11.90;99.90;;;;;;5040425;28;20044;-59
2022/09/18 07:00:50;;;;;;;4.05;1.65;;;12.00;99.90;;;;;;5043967;28;20132;-59
2022/09/18 07:03:15;;;;;;;5.78;2.38;;;12.00;99.90;;;;;;5044679;28;20037;-59
2022/09/18 07:05:44;;;;;;;6.35;2.50;;;12.10;99.90;;;;;;5043254;28;20059;-59
2022/09/18 07:08:10;;;;;;;7.68;3.00;;;12.10;99.90;;;;;;5043989;28;20037;-61
2022/09/18 07:10:36;;;;;;;8.32;2.85;;;12.10;99.90;;;;;;5044594;28;20120;-60
2022/09/18 07:13:02;;;;;;;8.77;3.42;;;12.00;99.90;;;;;;5042802;28;20111;-60
2022/09/18 07:15:28;;;;;;;10.48;3.90;;;12.20;99.90;;;;;;5044540;28;20033;-59
2022/09/18 07:18:02;;;;;;;11.68;3.15;;;12.30;99.90;;;;;;5047495;28;20442;-59
2022/09/18 07:20:28;;;;;;;9.90;3.25;;;12.40;99.90;;;;;;5042465;28;20121;-59
2022/09/18 07:22:57;;;;;;;10.45;2.55;;;12.70;99.90;;;;;;5043382;28;20396;-58
2022/09/18 07:25:23;;;;;;;14.07;3.17;;;13.10;99.90;;;;;;5040870;28;20150;-58
2022/09/18 07:27:49;;;;;;;11.60;2.80;;;12.70;99.90;;;;;;5044389;28;20387;-57
2022/09/18 07:30:15;;;;;;;5.70;2.30;;;13.10;99.90;;;;;;5044345;28;20036;-58
2022/09/18 07:32:42;;;;;;;7.95;2.47;;;13.20;99.90;;;;;;5042271;28;20163;-57
2022/09/18 07:35:08;;;;;;;8.10;2.50;;;13.50;99.90;;;;;;5041000;28;20029;-58
2022/09/18 07:37:33;;;;;;;9.07;2.55;;;13.30;99.90;;;;;;5043318;28;20364;-57
2022/09/18 07:39:59;;;;;;;6.57;2.58;;;13.40;99.90;;;;;;5041509;28;20040;-58
2022/09/18 07:42:25;;;;;;;9.05;2.53;;;13.60;99.90;;;;;;5040571;28;20135;-58
2022/09/18 07:44:52;;;;;;;13.43;3.05;;;13.40;99.90;;;;;;5039348;28;20032;-57
2022/09/18 07:47:17;;;;;;;10.63;2.42;;;13.60;99.90;;;;;;5039768;28;20472;-57
2022/09/18 07:49:43;;;;;;;8.38;2.63;;;13.40;99.90;;;;;;5042864;28;20047;-58
2022/09/18 07:52:09;;;;;;;8.63;2.60;;;13.40;99.90;;;;;;5046119;28;20029;-58
2022/09/18 07:54:35;;;;;;;7.80;1.92;;;13.40;99.90;;;;;;5039637;28;20083;-58
2022/09/18 07:57:00;;;;;;;10.77;3.00;;;13.50;99.90;;;;;;5042818;28;20484;-57
2022/09/18 07:59:26;;;;;;;6.10;2.50;;;13.60;99.90;;;;;;5038719;28;20084;-57
2022/09/18 08:01:54;;;;;;;10.25;2.55;;;13.70;99.90;;;;;;5042564;28;20085;-57
2022/09/18 08:04:23;;;;;;;7.10;2.33;;;14.20;99.90;;;;;;5043336;28;20484;-58
2022/09/18 08:06:56;;;;;;;11.77;2.40;;;13.90;99.90;;;;;;5043043;28;20041;-57
2022/09/18 08:09:22;;;;;;;9.30;2.50;;;13.90;99.90;;;;;;5046221;28;20068;-57
2022/09/18 08:11:51;;;;;;;11.95;2.67;;;13.50;99.90;;;;;;5039461;28;20573;-56
2022/09/18 08:14:16;;;;;;;5.97;2.00;;;13.60;99.90;;;;;;5040836;28;20387;-57
2022/09/18 08:16:42;;;;;;;9.90;2.10;;;13.80;99.90;;;;;;5041427;28;20037;-57
2022/09/18 08:19:08;;;;;;;6.95;1.88;;;13.80;99.90;;;;;;5042895;28;20059;-57
2022/09/18 08:21:33;;;;;;;4.95;2.03;;;13.80;99.90;;;;;;5041731;28;20128;-58
2022/09/18 08:23:59;;;;;;;11.00;2.58;;;13.70;99.90;;;;;;5042090;28;20025;-58
2022/09/18 08:26:25;;;;;;;8.57;2.30;;;13.70;99.90;;;;;;5040904;28;20033;-58
2022/09/18 08:28:50;;;;;;;9.73;2.35;;;13.80;99.90;;;;;;5041014;28;20085;-58
2022/09/18 08:31:16;;;;;;;8.38;2.03;;;13.70;99.90;;;;;;5042084;28;20082;-57
2022/09/18 08:33:41;;;;;;;7.75;2.38;;;13.60;99.90;;;;;;5044091;28;20117;-57
2022/09/18 08:36:07;;;;;;;5.90;2.40;;;13.70;99.90;;;;;;5037643;28;20158;-58
2022/09/18 08:38:33;;;;;;;14.90;2.88;;;13.70;99.90;;;;;;5041962;28;20064;-58
2022/09/18 08:41:08;;;;;;;7.00;2.63;;;13.80;99.90;;;;;;5040630;28;20111;-57
2022/09/18 08:43:55;;;;;;;8.90;2.50;;;13.90;99.90;;;;;;5041825;28;20269;-58
2022/09/18 08:46:42;;;;;;;9.70;2.45;;;13.80;99.90;;;;;;5037375;28;20060;-58
2022/09/18 08:49:34;;;;;;;8.38;2.60;;;13.80;99.90;;;;;;5044210;28;20448;-57
2022/09/18 08:52:13;;;;;;;7.35;2.50;;;13.70;99.90;;;;;;5042360;28;20117;-58
2022/09/18 08:55:00;;;;;;;6.60;2.78;;;13.70;99.90;;;;;;5043950;28;20021;-58
2022/09/18 08:57:40;;;;;;;11.90;3.22;;;13.90;99.90;;;;;;5041395;28;20395;-57
2022/09/18 09:00:18;;;;;;;10.75;3.22;;;14.10;99.90;;;;;;5040657;28;20044;-57
2022/09/18 09:02:49;;;;;;;11.35;3.30;;;15.40;99.90;;;;;;5043921;28;20392;-57
2022/09/18 09:05:18;;;;;;;5.95;2.85;;;;;;;;;;5043134;28;20038;-57
2022/09/18 09:07:52;;;;;;;7.75;2.75;;;14.20;99.90;;;;;;5046784;28;20040;-58
2022/09/18 09:10:56;;;;;;;6.63;3.35;;;14.20;99.90;;;;;;5041439;28;20203;-58
2022/09/18 09:13:25;;;;;;;;;;;14.40;99.90;;;;;;5041836;28;20647;-57
2022/09/18 09:16:05;;;;;;;9.15;4.30;;;14.10;99.90;;;;;;5038386;28;20118;-58
2022/09/18 09:18:35;;;;;;;7.43;4.53;;;;;;;;;;5045824;28;20039;-57
2022/09/18 09:21:21;;;;;;;11.05;5.03;;;14.70;99.90;;;;;;5045022;28;20033;-56
2022/09/18 09:23:59;;;;;;;10.05;6.53;;;14.50;99.90;;;;;;5040691;28;20026;-57
2022/09/18 09:26:27;;;;;;;11.73;7.93;;;;;;;;;;5041367;28;20052;-57
2022/09/18 09:29:02;;;;;;;10.70;7.03;;;14.40;99.90;;;;;;5042437;28;20048;-56
2022/09/18 09:31:37;;;;;;;12.73;8.23;;;;;;;;;;5041370;28;20499;-56
2022/09/18 09:34:12;;;;;;;9.77;7.43;;;14.00;99.90;;;;;;5043069;28;20029;-57
2022/09/18 09:36:41;;;;;;;9.88;6.10;;;14.50;99.90;;;;;;5041747;28;20040;-57
2022/09/18 09:39:22;;;;;;;9.82;6.13;;;14.40;99.90;;;;;;5041701;28;20025;-56
2022/09/18 09:42:20;;;;;;;7.72;5.47;;;14.30;99.90;;;;;;5041378;28;20056;-57
2022/09/18 09:44:51;;;;;;;8.90;5.65;;;;;;;;;;5037349;28;20112;-57
2022/09/18 09:47:25;;;;;;;7.72;4.82;;;;;;;;;;5040372;28;20051;-58
2022/09/18 09:50:04;;;;;;;9.27;4.03;;;14.70;99.90;;;;;;5041342;28;20040;-57
2022/09/18 09:52:33;;;;;;;7.60;3.97;;;14.60;99.90;;;;;;5039275;28;20044;-57
2022/09/18 09:55:19;;;;;;;5.78;4.10;;;14.90;99.90;;;;;;5044688;28;20041;-58
2022/09/18 09:57:50;;;;;;;7.38;4.13;;;;;;;;;;5040401;28;20044;-57
2022/09/18 10:00:18;;;;;;;7.03;3.92;;;14.80;99.90;;;;;;5036710;28;20065;-56
2022/09/18 10:02:54;;;;;;;6.38;3.65;;;14.90;99.90;;;;;;5042387;28;20110;-57
2022/09/18 10:05:33;;;;;;;6.90;3.83;;;15.00;99.90;;;;;;5043922;28;20064;-57
2022/09/18 10:08:09;;;;;;;5.47;3.50;;;;;;;;;;5039651;28;20507;-58
2022/09/18 10:10:55;;;;;;;7.75;3.63;;;15.00;99.90;;;;;;5040429;28;20061;-58
2022/09/18 10:13:25;;;;;;;7.55;3.13;;;15.20;99.90;;;;;;5039148;28;20059;-58
2022/09/18 10:15:56;;;;;;;7.85;3.88;;;14.90;99.90;;;;;;5039124;28;20542;-58
2022/09/18 10:18:30;;;;;;;8.25;3.50;;;15.00;99.90;;;;;;5040381;28;20029;-57
2022/09/18 10:21:05;;;;;;;10.55;3.80;;;14.80;99.90;;;;;;5041136;28;20045;-58
2022/09/18 10:23:40;;;;;;;8.98;3.60;;;14.80;99.90;;;;;;5041436;28;20166;-58
2022/09/18 10:26:12;;;;;;;5.72;3.40;;;14.80;99.90;;;;;;5039609;28;20032;-57
2022/09/18 10:28:38;;;;;;;8.18;4.05;;;14.60;99.90;;;;;;5038895;28;20067;-57
2022/09/18 10:31:08;;;;;;;7.93;3.85;;;14.50;99.90;;;;;;5038693;28;20121;-58
2022/09/18 10:33:40;;;;;;;5.00;3.83;;;14.50;99.90;;;;;;5041164;28;20042;-59
2022/09/18 10:36:25;;;;;;;7.93;3.83;;;14.50;99.90;;;;;;5037179;28;20047;-58
2022/09/18 10:38:51;;;;;;;9.93;4.50;;;14.00;99.90;;;;;;5038074;28;20045;-60
2022/09/18 10:41:18;;;;;;;10.35;4.38;;;;;;;;;;5038651;28;20033;-60
2022/09/18 10:44:13;;;;;;;8.10;4.88;;;14.40;99.90;;;;;;5040857;28;20048;-59
2022/09/18 10:46:49;;;;;;;6.93;4.53;;;14.30;99.90;;;;;;5036388;28;20468;-59
2022/09/18 10:49:22;;;;;;;7.03;5.28;;;14.20;99.90;;;;;;5040018;28;20033;-59
2022/09/18 10:51:47;;;;;;;8.35;4.45;;;14.20;99.90;;;;;;5041848;28;20024;-59
2022/09/18 10:54:17;;;;;;;8.52;5.30;;;14.20;99.90;;;;;;5038376;28;20048;-59
2022/09/18 10:56:42;;;;;;;7.97;5.10;;;14.20;99.90;;;;;;5039184;28;20045;-59
2022/09/18 10:59:31;;;;;;;10.23;5.78;;;14.30;99.90;;;;;;5041184;28;20041;-58
2022/09/18 11:01:58;;;;;;;8.68;5.18;;;14.20;99.90;;;;;;5041445;28;20130;-58
2022/09/18 11:04:26;;;;;;;9.13;5.32;;;14.20;99.90;;;;;;5040568;28;20086;-58
2022/09/18 11:06:52;;;;;;;9.90;5.03;;;14.20;99.90;;;;;;5042539;28;20048;-57
2022/09/18 11:09:27;;;;;;;7.88;4.80;;;14.10;99.90;;;;;;5040188;28;20090;-58
2022/09/18 11:11:53;;;;;;;7.57;4.50;;;14.00;99.90;;;;;;5039383;28;20393;-58
2022/09/18 11:14:28;;;;;;;7.50;4.35;;;14.10;99.90;;;;;;5039265;28;20073;-59
2022/09/18 11:16:57;;;;;;;9.75;5.68;;;13.90;99.90;;;;;;5042919;28;20543;-60
2022/09/18 11:19:33;;;;;;;11.57;5.35;;;13.90;99.90;;;;;;5044785;28;20558;-60
2022/09/18 11:22:02;;;;;;;14.18;8.05;;;13.90;99.90;;;;;;5042925;28;20216;-60
2022/09/18 11:24:32;;;;;;;6.13;2.50;;;13.20;99.90;;;;;;5046201;28;20409;-60
2022/09/18 11:27:00;;;;;;;8.07;4.18;;;12.40;99.90;;;;;;5033519;28;20065;-59
2022/09/18 11:29:38;;;;;;;5.75;3.03;;;;;;;;;;5035754;28;20408;-59
2022/09/18 11:32:12;;;;;;;5.68;3.10;;;11.60;99.90;;;;;;5042807;28;20037;-60
2022/09/18 11:34:50;;;;;;;6.38;2.53;;;11.80;99.90;;;;;;5040861;28;20033;-60
2022/09/18 11:37:33;;;;;;;3.92;1.50;;;11.90;99.90;;;;;;5044685;28;20469;-59
2022/09/18 11:40:32;;;;;;;2.40;1.35;;;12.00;99.90;;;;;;5040717;28;20033;-59
2022/09/18 11:42:58;;;;;;;4.15;1.80;;;12.00;99.90;;;;;;5016103;28;20037;-59
2022/09/18 11:45:33;;;;;;;4.18;2.00;;;12.20;99.90;;;;;;5039056;28;20044;-58
2022/09/18 11:48:11;;;;;;;6.55;2.40;;;12.40;99.90;;;;;;5043155;28;20581;-58
2022/09/18 11:50:38;;;;;;;6.32;2.88;;;12.70;99.90;;;;;;5042320;28;20044;-59
2022/09/18 11:53:12;;;;;;;5.00;3.65;;;12.80;99.90;;;;;;5040577;28;20942;-59
2022/09/18 11:55:47;;;;;;;6.97;2.70;;;12.80;99.90;;;;;;5045806;28;20137;-59
2022/09/18 11:58:25;;;;;;;6.53;3.10;;;12.70;99.90;;;;;;5045679;28;20075;-59
2022/09/18 12:00:59;;;;;;;5.50;2.90;;;12.90;99.90;;;;;;5046241;28;20086;-58
2022/09/18 12:03:30;;;;;;;7.38;2.50;;;12.70;99.90;;;;;;5041367;28;20040;-58
2022/09/18 12:06:07;;;;;;;5.72;2.17;;;12.60;99.90;;;;;;5043062;28;20983;-58
2022/09/18 12:08:52;;;;;;;3.72;1.45;;;12.80;99.90;;;;;;5035144;28;20069;-58
2022/09/18 12:11:39;;;;;;;5.10;1.60;;;12.60;99.90;;;;;;5038780;28;20071;-57
2022/09/18 12:14:32;;;;;;;2.97;1.58;;;12.80;99.90;;;;;;5011390;28;20131;-58
2022/09/18 12:17:10;;;;;;;7.95;1.52;;;12.80;99.90;;;;;;5016606;28;20576;-57
2022/09/18 12:20:06;;;;;;;8.77;1.60;;;12.90;99.90;;;;;;5021183;28;20443;-58
2022/09/18 12:22:48;;;;;;;8.60;1.60;;;13.00;99.90;;;;;;5019906;28;20049;-58
2022/09/18 12:25:15;;;;;;;5.43;1.38;;;12.90;99.90;;;;;;5019351;28;20049;-58
2022/09/18 12:27:52;;;;;;;5.28;1.40;;;12.90;99.90;;;;;;5022129;28;20150;-58
2022/09/18 12:30:20;;;;;;;4.35;1.13;;;13.00;99.90;;;;;;5017664;28;20033;-58
2022/09/18 12:33:12;;;;;;;5.55;1.33;;;13.00;99.90;;;;;;5023161;28;20436;-58
2022/09/18 12:36:02;;;;;;;4.05;0.90;;;13.00;99.90;;;;;;5024895;28;20102;-57
2022/09/18 12:38:43;;;;;;;5.07;1.20;;;13.00;99.90;;;;;;5022680;28;20045;-57
2022/09/18 12:41:25;;;;;;;2.90;1.35;;;13.00;99.90;;;;;;5019459;28;20197;-58
2022/09/18 12:44:10;;;;;;;3.70;1.35;;;13.10;99.90;;;;;;5018566;28;20037;-57
2022/09/18 12:46:41;;;;;;;5.97;1.90;;;12.90;99.90;;;;;;5029586;28;20036;-58
2022/09/18 12:49:31;;;;;;;4.15;1.23;;;12.90;99.90;;;;;;5041491;28;20146;-56
2022/09/18 12:52:18;;;;;;;7.35;2.10;;;13.00;99.90;;;;;;5038829;28;20844;-57
2022/09/18 12:55:05;;;;;;;5.95;1.73;;;12.90;99.90;;;;;;5041291;28;20112;-57
2022/09/18 12:57:45;;;;;;;6.68;2.17;;;12.90;99.90;;;;;;5042512;28;20041;-58
2022/09/18 13:00:13;;;;;;;4.97;1.92;;;13.00;99.90;;;;;;5042160;28;20105;-58
2022/09/18 13:02:39;;;;;;;6.85;2.40;;;13.00;99.90;;;;;;5042210;28;20461;-58
2022/09/18 13:05:11;;;;;;;11.27;2.65;;;13.30;99.90;;;;;;5042194;28;20032;-56
2022/09/18 13:07:46;;;;;;;6.65;1.90;;;13.30;99.90;;;;;;5044128;28;20520;-59
2022/09/18 13:10:15;;;;;;;7.80;2.03;;;13.30;99.90;;;;;;5038177;28;20055;-57
2022/09/18 13:12:52;;;;;;;6.25;2.00;;;13.40;99.90;;;;;;5041204;28;20120;-58